Time;durP1;ratioP1;P1;durP2;ratioP2;P2;SDS_P1;SDS_P2;PMS_P1;PMS_P2;Temp;Humidity;BMP_temperature;BMP_pressure;BME280_temperature;BME280_humidity;BME280_pressure;Samples;Min_cycle;Max_cycle;Signal;HPM_P1;HPM_P2
2022/05/14 00:01:23;;;;;;;18.40;5.18;;;12.90;99.90;;;;;;4957925;28;20055;-87
2022/05/14 00:03:49;;;;;;;11.85;4.88;;;12.80;99.90;;;;;;4957040;28;20503;-88
2022/05/14 00:06:17;;;;;;;16.20;5.15;;;12.90;99.90;;;;;;4988757;28;20401;-88
2022/05/14 00:08:43;;;;;;;16.65;5.65;;;12.80;99.90;;;;;;4956995;28;20098;-88
2022/05/14 00:13:53;;;;;;;15.60;5.65;;;12.80;99.90;;;;;;4988754;28;20105;-88
2022/05/14 00:16:20;;;;;;;15.50;5.75;;;12.80;99.90;;;;;;4958492;29;20039;-88
2022/05/14 00:18:45;;;;;;;19.30;6.00;;;12.80;99.90;;;;;;4988552;28;20047;-88
2022/05/14 00:21:11;;;;;;;14.00;5.28;;;12.80;99.90;;;;;;4972494;28;20098;-87
2022/05/14 00:23:37;;;;;;;15.80;6.38;;;12.80;99.90;;;;;;4989453;28;20361;-87
2022/05/14 00:26:03;;;;;;;15.73;5.95;;;12.80;99.90;;;;;;4957684;28;20054;-87
2022/05/14 00:28:28;;;;;;;14.70;5.82;;;12.80;99.90;;;;;;4955799;28;20074;-87
2022/05/14 00:30:54;;;;;;;20.15;7.15;;;12.80;99.90;;;;;;4957004;28;20102;-87
2022/05/14 00:33:20;;;;;;;18.05;6.00;;;12.80;99.90;;;;;;4956785;29;20051;-87
2022/05/14 00:35:46;;;;;;;16.60;6.45;;;12.80;99.90;;;;;;4957173;29;20051;-87
2022/05/14 00:38:12;;;;;;;21.63;6.32;;;12.80;99.90;;;;;;4957196;28;20377;-87
2022/05/14 00:40:44;;;;;;;16.55;6.45;;;12.80;99.90;;;;;;4955883;29;20114;-86
2022/05/14 00:43:10;;;;;;;17.20;5.70;;;12.80;99.90;;;;;;4955851;29;20051;-87
2022/05/14 00:45:39;;;;;;;24.13;6.25;;;12.80;99.90;;;;;;4956363;28;20047;-87
2022/05/14 00:48:05;;;;;;;20.40;6.50;;;12.70;99.90;;;;;;4971861;28;20098;-87
2022/05/14 00:50:46;;;;;;;20.77;6.20;;;12.70;99.90;;;;;;4971967;28;20440;-87
2022/05/14 00:53:33;;;;;;;22.33;6.22;;;12.70;99.90;;;;;;4971884;28;20047;-87
2022/05/14 00:56:01;;;;;;;24.77;6.93;;;12.60;99.90;;;;;;4954161;29;20484;-88
2022/05/14 00:58:34;;;;;;;17.10;5.22;;;12.60;99.90;;;;;;4955223;28;20051;-87
2022/05/14 01:01:00;;;;;;;21.15;6.05;;;12.60;99.90;;;;;;4988280;28;20396;-87
2022/05/14 01:03:25;;;;;;;19.60;6.45;;;12.60;99.90;;;;;;4988393;28;20055;-87
2022/05/14 01:05:52;;;;;;;18.73;6.07;;;12.50;99.90;;;;;;4955242;28;20126;-87
2022/05/14 01:08:17;;;;;;;18.40;6.63;;;12.50;99.90;;;;;;4971597;28;20456;-87
2022/05/14 01:10:43;;;;;;;19.52;7.63;;;12.50;99.90;;;;;;4972174;28;20054;-87
2022/05/14 01:13:09;;;;;;;23.23;6.05;;;12.60;99.90;;;;;;4972360;28;20403;-87
2022/05/14 01:15:40;;;;;;;21.75;6.15;;;12.60;99.90;;;;;;4971960;28;20079;-87
2022/05/14 01:18:06;;;;;;;19.60;5.72;;;12.60;99.90;;;;;;4979394;28;20059;-87
2022/05/14 01:20:35;;;;;;;16.77;5.95;;;12.60;99.90;;;;;;4975366;28;20077;-87
2022/05/14 01:23:16;;;;;;;24.05;6.22;;;12.60;99.90;;;;;;4994950;28;20034;-87
2022/05/14 01:28:33;;;;;;;21.15;6.18;;;12.50;99.90;;;;;;4986379;28;19923;-86
2022/05/14 01:30:59;;;;;;;24.27;6.35;;;12.50;99.90;;;;;;4985765;28;20039;-87
2022/05/14 01:33:25;;;;;;;19.42;5.78;;;12.50;99.90;;;;;;4978856;28;20047;-87
2022/05/14 01:35:51;;;;;;;24.38;6.20;;;12.50;99.90;;;;;;4972174;28;20078;-87
2022/05/14 01:38:17;;;;;;;21.30;6.43;;;12.60;99.90;;;;;;4972019;28;20059;-87
2022/05/14 01:40:43;;;;;;;22.92;6.32;;;12.50;99.90;;;;;;4971492;28;20499;-87
2022/05/14 01:43:09;;;;;;;26.00;6.30;;;12.50;99.90;;;;;;4971377;28;20043;-86
2022/05/14 01:45:34;;;;;;;22.80;6.50;;;12.50;99.90;;;;;;4955265;28;20399;-87
2022/05/14 01:48:00;;;;;;;19.58;6.03;;;12.50;99.90;;;;;;4987266;28;20078;-87
2022/05/14 01:50:26;;;;;;;23.60;6.97;;;12.50;99.90;;;;;;4954900;29;20047;-87
2022/05/14 01:52:51;;;;;;;25.50;6.18;;;12.40;99.90;;;;;;4971975;28;20044;-87
2022/05/14 01:55:17;;;;;;;25.95;6.63;;;12.40;99.90;;;;;;4938871;29;20051;-87
2022/05/14 01:57:43;;;;;;;25.67;6.75;;;12.30;99.90;;;;;;4956138;29;20518;-87
2022/05/14 02:00:09;;;;;;;23.27;6.95;;;12.30;99.90;;;;;;4955288;28;20055;-88
2022/05/14 02:02:35;;;;;;;24.98;7.70;;;12.30;99.90;;;;;;4986768;28;20047;-87
2022/05/14 02:05:01;;;;;;;21.67;6.93;;;12.20;99.90;;;;;;4956958;28;20130;-88
2022/05/14 02:07:26;;;;;;;27.00;7.10;;;12.20;99.90;;;;;;4955489;28;20147;-87
2022/05/14 02:09:53;;;;;;;23.08;6.45;;;12.20;99.90;;;;;;4955023;28;20106;-86
2022/05/14 02:12:18;;;;;;;24.77;7.40;;;12.10;99.90;;;;;;4955205;29;20191;-87
2022/05/14 02:14:45;;;;;;;24.80;6.88;;;12.10;99.90;;;;;;4970321;28;20076;-88
2022/05/14 02:17:12;;;;;;;28.33;7.25;;;12.00;99.90;;;;;;4955617;28;20106;-88
2022/05/14 02:19:37;;;;;;;24.92;6.80;;;12.00;99.90;;;;;;4954569;29;20477;-87
2022/05/14 02:22:05;;;;;;;24.15;6.88;;;12.00;99.90;;;;;;4955033;29;20180;-87
2022/05/14 02:24:32;;;;;;;31.63;7.57;;;11.90;99.90;;;;;;4955685;29;20097;-88
2022/05/14 02:26:57;;;;;;;26.38;7.55;;;11.90;99.90;;;;;;4956522;28;20051;-87
2022/05/14 02:29:24;;;;;;;32.80;7.38;;;11.90;99.90;;;;;;4955228;29;20498;-87
2022/05/14 02:31:50;;;;;;;21.38;6.93;;;11.90;99.90;;;;;;4970954;28;20051;-86
2022/05/14 02:34:16;;;;;;;26.70;7.70;;;11.80;99.90;;;;;;4954060;29;20058;-87
2022/05/14 02:36:41;;;;;;;25.83;7.60;;;11.80;99.90;;;;;;4970527;28;20070;-87
2022/05/14 02:39:07;;;;;;;25.13;8.00;;;11.80;99.90;;;;;;4955031;28;20051;-87
2022/05/14 02:41:33;;;;;;;30.88;8.13;;;11.70;99.90;;;;;;4956951;28;20467;-87
2022/05/14 02:43:58;;;;;;;23.20;7.30;;;11.70;99.90;;;;;;4970542;28;20055;-87
2022/05/14 02:46:24;;;;;;;27.15;8.10;;;11.70;99.90;;;;;;4970409;28;20048;-87
2022/05/14 02:48:50;;;;;;;24.42;8.00;;;11.70;99.90;;;;;;4956081;28;20051;-87
2022/05/14 02:51:15;;;;;;;29.77;7.97;;;11.60;99.90;;;;;;4954741;28;20463;-87
2022/05/14 02:53:41;;;;;;;29.27;7.53;;;11.60;99.90;;;;;;4958223;29;20082;-87
2022/05/14 02:56:06;;;;;;;26.52;8.30;;;11.60;99.90;;;;;;4958496;29;20369;-87
2022/05/14 03:01:16;;;;;;;25.02;7.82;;;11.70;99.90;;;;;;4959080;29;20140;-88
2022/05/14 03:03:42;;;;;;;31.65;9.10;;;11.50;99.90;;;;;;4974130;28;20493;-87
2022/05/14 03:06:08;;;;;;;27.25;8.65;;;11.50;99.90;;;;;;4958414;28;20043;-87
2022/05/14 03:08:34;;;;;;;25.92;8.13;;;11.50;99.90;;;;;;5009640;28;20055;-88
2022/05/14 03:10:59;;;;;;;33.25;9.40;;;11.40;99.90;;;;;;4982005;28;20027;-88
2022/05/14 03:13:25;;;;;;;29.40;8.57;;;11.40;99.90;;;;;;4982326;28;20035;-87
2022/05/14 03:15:51;;;;;;;32.85;9.23;;;11.40;99.90;;;;;;4993139;28;20118;-88
2022/05/14 03:18:16;;;;;;;28.92;9.07;;;11.40;99.90;;;;;;4972939;29;20054;-88
2022/05/14 03:20:42;;;;;;;27.35;8.60;;;11.50;99.90;;;;;;4971584;29;20086;-88
2022/05/14 03:23:08;;;;;;;29.05;9.27;;;11.40;99.90;;;;;;4964747;28;20050;-88
2022/05/14 03:25:34;;;;;;;29.00;9.10;;;11.40;99.90;;;;;;4957453;29;20051;-88
2022/05/14 03:27:59;;;;;;;34.15;9.38;;;11.40;99.90;;;;;;4989731;28;20083;-86
2022/05/14 03:30:25;;;;;;;31.73;9.20;;;11.40;99.90;;;;;;4957104;28;20051;-88
2022/05/14 03:32:51;;;;;;;28.48;9.23;;;11.40;99.90;;;;;;4990193;28;20050;-88
2022/05/14 03:35:16;;;;;;;29.92;9.80;;;11.30;99.90;;;;;;4957491;28;20376;-88
2022/05/14 03:37:42;;;;;;;31.00;9.63;;;11.30;99.90;;;;;;4957423;29;20047;-89
2022/05/14 03:40:09;;;;;;;30.70;8.85;;;11.30;99.90;;;;;;4958535;28;20059;-87
2022/05/14 03:42:35;;;;;;;29.17;9.52;;;11.30;99.90;;;;;;4957795;29;20054;-87
2022/05/14 03:45:01;;;;;;;31.00;9.23;;;11.30;99.90;;;;;;4972645;28;20039;-87
2022/05/14 03:47:28;;;;;;;29.90;9.82;;;11.30;99.90;;;;;;4957715;29;20066;-87
2022/05/14 03:49:53;;;;;;;30.85;9.90;;;11.30;99.90;;;;;;4989033;28;20115;-87
2022/05/14 03:52:19;;;;;;;29.27;9.32;;;11.20;99.90;;;;;;4957899;28;20086;-87
2022/05/14 03:54:45;;;;;;;37.85;9.88;;;11.30;99.90;;;;;;4973166;28;20384;-87
2022/05/14 03:57:11;;;;;;;33.35;9.80;;;11.30;99.90;;;;;;4956723;28;20051;-87
2022/05/14 03:59:37;;;;;;;32.25;9.52;;;11.30;99.90;;;;;;4957760;29;20043;-86
2022/05/14 04:02:03;;;;;;;30.77;9.73;;;11.30;99.90;;;;;;4973087;28;20380;-87
2022/05/14 04:04:30;;;;;;;29.85;9.48;;;11.40;99.90;;;;;;4956095;28;20502;-87
2022/05/14 04:06:56;;;;;;;30.83;9.63;;;11.40;99.90;;;;;;4957805;28;20055;-86
2022/05/14 04:09:22;;;;;;;35.58;9.85;;;11.40;99.90;;;;;;4957107;28;20138;-86
2022/05/14 04:11:48;;;;;;;31.30;9.38;;;11.50;99.90;;;;;;4989445;28;20134;-86
2022/05/14 04:14:13;;;;;;;37.88;10.07;;;11.50;99.90;;;;;;4957744;29;20130;-86
2022/05/14 04:16:39;;;;;;;29.48;9.38;;;11.60;99.90;;;;;;4957885;29;20046;-87
2022/05/14 04:19:05;;;;;;;29.48;9.90;;;11.60;99.90;;;;;;4972929;28;20097;-87
2022/05/14 04:21:32;;;;;;;28.00;10.20;;;11.70;99.90;;;;;;4972843;28;20043;-87
2022/05/14 04:23:59;;;;;;;29.85;9.70;;;11.60;99.90;;;;;;4972277;28;20451;-87
2022/05/14 04:26:25;;;;;;;34.45;10.52;;;11.70;99.90;;;;;;4957368;28;20051;-87
2022/05/14 04:28:51;;;;;;;26.98;9.40;;;11.70;99.90;;;;;;4956960;29;20055;-87
2022/05/14 04:31:17;;;;;;;28.92;9.43;;;11.70;99.90;;;;;;4955892;28;20143;-87
2022/05/14 04:33:43;;;;;;;32.95;10.45;;;11.80;99.90;;;;;;4956409;28;20055;-87
2022/05/14 04:36:09;;;;;;;28.75;8.85;;;11.80;99.90;;;;;;4957340;28;20059;-86
2022/05/14 04:38:35;;;;;;;29.65;9.40;;;11.90;99.90;;;;;;4957116;28;20058;-87
2022/05/14 04:41:00;;;;;;;29.05;8.95;;;11.80;99.90;;;;;;4957869;29;20070;-87
2022/05/14 04:43:26;;;;;;;27.15;9.32;;;11.80;99.90;;;;;;4956093;29;20047;-87
2022/05/14 04:45:51;;;;;;;26.83;9.88;;;11.80;99.90;;;;;;4988743;28;20047;-86
2022/05/14 04:48:18;;;;;;;28.15;10.45;;;11.80;99.90;;;;;;4971861;28;20102;-86
2022/05/14 04:50:45;;;;;;;27.67;9.50;;;11.80;99.90;;;;;;4957352;28;20051;-86
2022/05/14 04:53:11;;;;;;;31.90;9.40;;;11.80;99.90;;;;;;4971599;28;20055;-86
2022/05/14 04:55:37;;;;;;;29.92;9.93;;;11.70;99.90;;;;;;4978254;29;20042;-86
2022/05/14 04:58:03;;;;;;;26.83;9.35;;;11.80;99.90;;;;;;4996440;28;20043;-86
2022/05/14 05:00:28;;;;;;;27.83;9.43;;;11.70;99.90;;;;;;4996202;28;20027;-86
2022/05/14 05:05:38;;;;;;;31.52;9.13;;;11.60;99.90;;;;;;4979984;29;20035;-87
2022/05/14 05:08:04;;;;;;;26.00;9.95;;;11.60;99.90;;;;;;5006978;28;20055;-87
2022/05/14 05:10:30;;;;;;;24.58;9.55;;;11.60;99.90;;;;;;4975419;28;20069;-84
2022/05/14 05:13:04;;;;;;;32.20;9.88;;;11.60;99.90;;;;;;4955527;29;20451;-88
2022/05/14 05:15:29;;;;;;;36.53;10.00;;;11.70;99.90;;;;;;4971886;28;20047;-89
2022/05/14 05:17:55;;;;;;;33.85;9.77;;;11.70;99.90;;;;;;4972962;28;20045;-92
2022/05/14 05:20:21;;;;;;;27.73;9.55;;;11.70;99.90;;;;;;4957635;28;20471;-90
2022/05/14 05:22:48;;;;;;;33.05;9.65;;;11.70;99.90;;;;;;4956070;29;20110;-90
2022/05/14 05:25:13;;;;;;;30.30;9.57;;;11.70;99.90;;;;;;4955082;29;20085;-87
2022/05/14 05:27:39;;;;;;;29.63;9.50;;;11.60;99.90;;;;;;4954837;28;20075;-89
2022/05/14 05:30:05;;;;;;;24.85;9.02;;;11.70;99.90;;;;;;4956253;29;20061;-89
2022/05/14 05:32:31;;;;;;;32.40;9.80;;;11.70;99.90;;;;;;4956994;28;20058;-85
2022/05/14 05:34:57;;;;;;;30.77;10.15;;;11.70;99.90;;;;;;4954732;28;20051;-92
2022/05/14 05:37:22;;;;;;;33.53;10.43;;;11.70;99.90;;;;;;4987648;28;20055;-89
2022/05/14 05:39:48;;;;;;;26.73;9.38;;;11.70;99.90;;;;;;4956918;29;20113;-87
2022/05/14 05:42:13;;;;;;;25.85;9.70;;;11.70;99.90;;;;;;4957550;29;20054;-88
2022/05/14 05:44:39;;;;;;;34.08;9.90;;;11.70;99.90;;;;;;4954896;28;20051;-87
2022/05/14 05:47:08;;;;;;;25.55;9.82;;;11.70;99.90;;;;;;4956453;29;20052;-90
2022/05/14 05:49:39;;;;;;;26.45;9.18;;;11.80;99.90;;;;;;4987967;28;20566;-87
2022/05/14 05:52:11;;;;;;;34.72;10.32;;;11.80;99.90;;;;;;4956038;29;20109;-89
2022/05/14 05:57:35;;;;;;;24.48;9.50;;;12.10;99.90;;;;;;4969575;28;20055;-88
2022/05/14 06:00:01;;;;;;;31.77;10.10;;;12.10;99.90;;;;;;4970721;28;20396;-90
2022/05/14 06:02:27;;;;;;;30.85;10.25;;;12.20;99.90;;;;;;4954976;28;20039;-93
2022/05/14 06:04:52;;;;;;;31.30;9.85;;;12.30;99.90;;;;;;4955680;29;20055;-90
2022/05/14 06:07:18;;;;;;;29.92;10.13;;;12.30;99.90;;;;;;4954946;28;20048;-89
2022/05/14 06:09:46;;;;;;;30.65;9.32;;;12.30;99.90;;;;;;4971627;28;20130;-90
2022/05/14 06:12:12;;;;;;;28.30;9.65;;;12.40;99.90;;;;;;4955708;29;20061;-90
2022/05/14 06:14:39;;;;;;;27.33;9.73;;;12.40;99.90;;;;;;4955066;28;20047;-90
2022/05/14 06:17:05;;;;;;;33.95;10.00;;;12.40;99.90;;;;;;4939310;29;20057;-90
2022/05/14 06:19:30;;;;;;;25.40;9.38;;;12.50;99.90;;;;;;4987503;28;20039;-89
2022/05/14 06:21:59;;;;;;;30.80;9.32;;;12.50;99.90;;;;;;4987119;28;20111;-89
2022/05/14 06:24:24;;;;;;;33.10;10.15;;;12.50;99.90;;;;;;4955135;28;20050;-89
2022/05/14 06:26:50;;;;;;;25.63;9.63;;;12.60;99.90;;;;;;4956436;28;20431;-92
2022/05/14 06:29:16;;;;;;;32.90;10.73;;;12.60;99.90;;;;;;4943442;29;20381;-92
2022/05/14 06:31:41;;;;;;;29.75;9.98;;;12.60;99.90;;;;;;4958994;28;20043;-92
2022/05/14 06:34:07;;;;;;;29.10;8.95;;;12.70;99.90;;;;;;4960601;28;20062;-91
2022/05/14 06:36:33;;;;;;;32.00;9.52;;;12.70;99.90;;;;;;4959623;28;20063;-91
2022/05/14 06:39:00;;;;;;;28.15;8.93;;;12.80;99.90;;;;;;4981252;28;20042;-93
2022/05/14 06:41:25;;;;;;;27.83;8.18;;;12.80;99.90;;;;;;4998803;28;20027;-87
2022/05/14 06:43:51;;;;;;;30.35;7.93;;;12.90;99.90;;;;;;5014232;28;20051;-87
2022/05/14 06:46:17;;;;;;;29.67;7.82;;;12.90;99.90;;;;;;4977713;28;20067;-84
2022/05/14 06:48:43;;;;;;;31.33;8.32;;;13.10;99.90;;;;;;4972458;29;20055;-84
2022/05/14 06:51:10;;;;;;;33.85;8.43;;;13.10;99.90;;;;;;5007460;28;20484;-82
2022/05/14 06:53:37;;;;;;;28.05;7.50;;;13.20;99.90;;;;;;4972214;28;20442;-82
2022/05/14 06:56:02;;;;;;;28.73;6.53;;;13.30;99.90;;;;;;4963834;29;20067;-83
2022/05/14 06:58:32;;;;;;;31.98;7.05;;;13.40;99.90;;;;;;4958039;29;20063;-82
2022/05/14 07:00:58;;;;;;;26.77;6.80;;;13.50;99.90;;;;;;4957557;29;20491;-81
2022/05/14 07:08:52;;;;;;;27.63;5.95;;;13.70;99.90;;;;;;4958564;29;20114;-83
2022/05/14 07:11:17;;;;;;;18.67;5.18;;;13.80;99.90;;;;;;4958442;28;20051;-83
2022/05/14 07:13:43;;;;;;;26.42;5.20;;;13.80;99.90;;;;;;4959174;29;20502;-82
2022/05/14 07:16:08;;;;;;;23.95;5.68;;;13.90;99.90;;;;;;4959404;29;20062;-82
2022/05/14 07:18:34;;;;;;;21.38;5.90;;;13.90;99.90;;;;;;4958385;28;20071;-82
2022/05/14 07:21:00;;;;;;;22.67;4.72;;;14.00;99.90;;;;;;4958466;28;20391;-82
2022/05/14 07:23:25;;;;;;;35.47;6.05;;;14.00;99.90;;;;;;4957454;29;20044;-81
2022/05/14 07:25:51;;;;;;;21.73;4.70;;;14.00;99.90;;;;;;4958257;29;20046;-82
2022/05/14 07:28:17;;;;;;;21.20;4.90;;;14.10;99.90;;;;;;4958491;29;20050;-83
2022/05/14 07:30:43;;;;;;;22.30;5.40;;;14.20;99.90;;;;;;4958416;28;20528;-82
2022/05/14 07:33:09;;;;;;;20.45;5.07;;;14.50;99.90;;;;;;4973180;28;20047;-90
2022/05/14 07:35:35;;;;;;;26.90;5.55;;;14.60;99.90;;;;;;4957433;29;20054;-83
2022/05/14 07:38:02;;;;;;;19.58;5.47;;;14.90;99.90;;;;;;4958194;28;20057;-83
2022/05/14 07:40:28;;;;;;;19.92;4.85;;;15.20;99.90;;;;;;4958807;28;20047;-82
2022/05/14 07:43:03;;;;;;;21.15;4.88;;;15.40;99.90;;;;;;4973518;28;20051;-83
2022/05/14 07:45:32;;;;;;;21.20;5.43;;;15.50;99.90;;;;;;4972258;28;20047;-84
2022/05/14 07:47:57;;;;;;;18.17;5.65;;;15.60;99.90;;;;;;4972837;28;20127;-83
2022/05/14 07:50:23;;;;;;;20.55;5.38;;;15.70;99.90;;;;;;4957812;28;20095;-84
2022/05/14 07:52:51;;;;;;;21.80;5.50;;;15.70;99.90;;;;;;4958578;29;20051;-84
2022/05/14 07:55:17;;;;;;;22.63;5.70;;;15.80;99.90;;;;;;4977535;28;20101;-83
2022/05/14 07:57:42;;;;;;;23.90;5.75;;;15.80;99.90;;;;;;4972419;28;20133;-83
2022/05/14 08:00:09;;;;;;;23.85;4.80;;;15.80;99.90;;;;;;4957677;29;20047;-82
2022/05/14 08:02:34;;;;;;;22.88;5.93;;;15.90;98.90;;;;;;4989664;28;20055;-82
2022/05/14 08:05:08;;;;;;;19.45;5.50;;;16.00;98.70;;;;;;4972282;28;20499;-83
2022/05/14 08:07:34;;;;;;;23.08;4.80;;;16.10;98.10;;;;;;4957484;28;20130;-83
2022/05/14 08:09:59;;;;;;;23.85;5.50;;;16.10;98.10;;;;;;4957315;29;20118;-82
2022/05/14 08:12:25;;;;;;;20.02;5.13;;;16.10;98.20;;;;;;4972537;28;20051;-83
2022/05/14 08:14:51;;;;;;;20.70;5.40;;;16.20;97.10;;;;;;4973247;28;20050;-86
2022/05/14 08:17:16;;;;;;;21.15;4.57;;;16.10;96.50;;;;;;4957739;29;20082;-83
2022/05/14 08:19:42;;;;;;;22.30;5.13;;;16.10;96.40;;;;;;4957050;28;20090;-89
2022/05/14 08:24:52;;;;;;;16.58;4.65;;;16.10;95.90;;;;;;4970294;28;20047;-86
2022/05/14 08:27:18;;;;;;;16.90;4.65;;;16.10;94.90;;;;;;4957025;29;20106;-87
2022/05/14 08:29:47;;;;;;;23.48;4.70;;;16.20;95.00;;;;;;4962751;28;20031;-87
2022/05/14 08:32:13;;;;;;;21.77;5.15;;;16.20;94.10;;;;;;4980478;28;20047;-86
2022/05/14 08:34:39;;;;;;;23.65;4.95;;;16.20;94.60;;;;;;4964058;29;20078;-85
2022/05/14 08:37:05;;;;;;;23.17;5.38;;;16.20;94.70;;;;;;4979853;29;20125;-84
2022/05/14 08:39:30;;;;;;;21.77;5.00;;;16.30;94.30;;;;;;4986733;28;20058;-84
2022/05/14 08:41:57;;;;;;;22.95;5.35;;;16.30;94.30;;;;;;4970387;28;20047;-84
2022/05/14 08:44:32;;;;;;;18.33;5.03;;;16.40;94.20;;;;;;4982436;28;20053;-85
2022/05/14 08:47:04;;;;;;;21.13;5.32;;;16.60;93.70;;;;;;4975927;28;20075;-84
2022/05/14 08:49:35;;;;;;;24.23;4.93;;;16.60;93.60;;;;;;4972351;28;20134;-85
2022/05/14 08:52:02;;;;;;;17.05;4.35;;;16.70;92.80;;;;;;4956628;28;20065;-85
2022/05/14 08:54:27;;;;;;;18.15;4.60;;;16.70;92.50;;;;;;4972736;28;20057;-85
2022/05/14 08:56:59;;;;;;;21.42;4.65;;;16.70;92.40;;;;;;4988698;28;20397;-85
2022/05/14 08:59:49;;;;;;;20.50;4.60;;;16.70;92.40;;;;;;4972691;28;20399;-86
2022/05/14 09:02:35;;;;;;;22.85;5.53;;;16.80;92.40;;;;;;4957092;29;20395;-86
2022/05/14 09:05:05;;;;;;;20.70;4.70;;;16.90;91.50;;;;;;4972447;28;20051;-89
2022/05/14 09:07:31;;;;;;;21.30;6.05;;;16.90;91.60;;;;;;4956935;29;20464;-85
2022/05/14 09:09:57;;;;;;;19.27;4.90;;;16.90;91.70;;;;;;4957974;29;20075;-91
2022/05/14 09:12:29;;;;;;;23.23;4.75;;;17.00;91.30;;;;;;4972364;28;20059;-93
2022/05/14 09:15:12;;;;;;;21.27;5.38;;;17.10;90.70;;;;;;4956273;29;20058;-87
2022/05/14 09:17:37;;;;;;;21.50;5.30;;;17.20;90.90;;;;;;4971254;28;20077;-88
2022/05/14 09:20:03;;;;;;;21.25;4.97;;;17.10;90.60;;;;;;4955802;29;20051;-86
2022/05/14 09:22:45;;;;;;;20.30;5.18;;;17.20;90.30;;;;;;4972582;28;20130;-85
2022/05/14 09:25:29;;;;;;;19.88;5.00;;;17.20;90.00;;;;;;4987702;28;20075;-86
2022/05/14 09:28:04;;;;;;;20.38;4.60;;;17.20;90.60;;;;;;4988730;28;20457;-85
2022/05/14 09:30:36;;;;;;;19.50;4.90;;;17.20;90.40;;;;;;4987868;28;20094;-87
2022/05/14 09:33:05;;;;;;;18.52;4.75;;;17.40;90.20;;;;;;4956465;28;20047;-91
2022/05/14 09:35:35;;;;;;;20.73;5.40;;;17.50;90.20;;;;;;4955888;29;20054;-86
2022/05/14 09:38:21;;;;;;;21.45;5.38;;;17.60;90.00;;;;;;4956011;29;20065;-87
2022/05/14 09:40:47;;;;;;;21.23;4.95;;;17.70;89.80;;;;;;4955903;29;20051;-91
2022/05/14 09:43:26;;;;;;;20.17;5.10;;;17.90;89.40;;;;;;4987595;28;20050;-88
2022/05/14 09:46:02;;;;;;;24.63;6.00;;;18.00;85.30;;;;;;4954780;29;20105;-89
2022/05/14 09:48:55;;;;;;;21.80;5.05;;;18.10;87.00;;;;;;4956731;29;20047;-83
2022/05/14 09:51:51;;;;;;;18.52;5.25;;;18.10;86.30;;;;;;4944996;29;20366;-84
2022/05/14 09:54:26;;;;;;;16.67;4.30;;;18.10;84.40;;;;;;4954507;28;20062;-84
2022/05/14 09:57:20;;;;;;;18.23;4.47;;;18.10;84.10;;;;;;4987986;28;20420;-84
2022/05/14 10:00:09;;;;;;;21.70;4.82;;;18.00;85.00;;;;;;4955004;28;20087;-89
2022/05/14 10:02:42;;;;;;;20.75;5.13;;;18.10;83.90;;;;;;4958712;29;20110;-87
2022/05/14 10:05:35;;;;;;;22.30;5.20;;;18.10;83.90;;;;;;4958680;29;20043;-85
2022/05/14 10:08:10;;;;;;;19.85;5.45;;;18.20;85.30;;;;;;4974851;28;20051;-83
2022/05/14 10:11:14;;;;;;;20.50;5.88;;;18.40;85.50;;;;;;4959195;28;20047;-91
2022/05/14 10:13:54;;;;;;;19.05;5.07;;;18.50;81.60;;;;;;4959701;29;20043;-84
2022/05/14 10:16:29;;;;;;;17.88;4.80;;;18.50;80.70;;;;;;4974982;28;20057;-85
2022/05/14 10:19:18;;;;;;;17.10;4.50;;;18.50;78.90;;;;;;4990862;28;20090;-84
2022/05/14 10:21:55;;;;;;;20.02;5.35;;;18.50;79.60;;;;;;4972700;28;20058;-84
2022/05/14 10:28:21;;;;;;;28.77;14.88;;;18.80;78.60;;;;;;4981597;29;20046;-83
2022/05/14 10:31:01;;;;;;;22.60;5.25;;;19.10;79.30;;;;;;4935505;28;20091;-83
2022/05/14 10:33:28;;;;;;;16.77;4.25;;;19.20;75.90;;;;;;4925242;29;20036;-83
2022/05/14 10:36:02;;;;;;;20.38;5.30;;;19.20;75.70;;;;;;4942462;28;20059;-82
2022/05/14 10:38:51;;;;;;;20.73;5.13;;;19.20;76.40;;;;;;4969134;29;20051;-83
2022/05/14 10:41:37;;;;;;;18.55;4.82;;;19.30;75.20;;;;;;4965078;29;20055;-82
2022/05/14 10:44:12;;;;;;;17.42;4.75;;;19.50;74.00;;;;;;4974390;28;20055;-84
2022/05/14 10:46:38;;;;;;;19.20;4.90;;;19.70;74.40;;;;;;4972986;28;20175;-85
2022/05/14 10:49:38;;;;;;;16.02;4.50;;;19.90;73.50;;;;;;4958101;28;20051;-84
2022/05/14 10:52:11;;;;;;;16.15;5.10;;;20.10;73.00;;;;;;4945651;29;20059;-84
2022/05/14 10:54:37;;;;;;;20.20;4.82;;;20.20;68.70;;;;;;4973623;28;20043;-82
2022/05/14 10:57:27;;;;;;;17.30;4.07;;;20.20;66.80;;;;;;4958720;28;20077;-83
2022/05/14 10:59:53;;;;;;;;;;;20.20;64.10;;;;;;4957829;29;20051;-82
2022/05/14 11:02:29;;;;;;;17.25;5.15;;;20.00;60.10;;;;;;4958236;28;19929;-82
2022/05/14 11:04:55;;;;;;;18.13;4.25;;;20.00;64.40;;;;;;4958005;29;20051;-83
2022/05/14 11:07:37;;;;;;;21.10;5.60;;;19.90;64.30;;;;;;4958069;28;20400;-81
2022/05/14 11:10:29;;;;;;;17.77;4.90;;;19.90;65.50;;;;;;4958854;29;20047;-82
2022/05/14 11:12:55;;;;;;;18.30;4.70;;;20.00;66.20;;;;;;4971597;28;20094;-82
2022/05/14 11:15:26;;;;;;;23.33;4.78;;;20.10;65.20;;;;;;4958967;29;20078;-83
2022/05/14 11:18:09;;;;;;;16.27;4.63;;;20.20;63.70;;;;;;4941632;29;20051;-83
2022/05/14 11:20:35;;;;;;;18.48;5.03;;;20.40;60.20;;;;;;4973696;28;20047;-81
2022/05/14 11:23:11;;;;;;;17.70;4.40;;;20.50;60.20;;;;;;4973613;28;20050;-81
2022/05/14 11:25:37;;;;;;;21.65;4.93;;;20.60;59.30;;;;;;4957874;29;20043;-81
2022/05/14 11:28:05;;;;;;;17.15;4.78;;;20.60;58.70;;;;;;4973413;28;20185;-82
2022/05/14 11:30:41;;;;;;;16.52;4.60;;;20.60;57.60;;;;;;4958317;28;20051;-82
2022/05/14 11:33:27;;;;;;;17.27;4.70;;;20.50;57.10;;;;;;4972790;28;20050;-82
2022/05/14 11:36:22;;;;;;;21.90;6.10;;;20.50;58.40;;;;;;4946504;28;20387;-81
2022/05/14 11:39:04;;;;;;;21.40;5.00;;;20.30;59.80;;;;;;4953752;28;20522;-82
2022/05/14 11:41:31;;;;;;;18.17;4.70;;;20.20;59.50;;;;;;4957999;28;20043;-81
2022/05/14 11:43:57;;;;;;;19.27;5.75;;;20.00;60.80;;;;;;4958765;28;20055;-81
2022/05/14 11:46:42;;;;;;;20.85;5.10;;;20.00;62.50;;;;;;4956913;29;20055;-82
2022/05/14 11:49:27;;;;;;;18.67;5.10;;;19.90;63.90;;;;;;4957482;29;20372;-82
2022/05/14 11:52:14;;;;;;;18.98;5.03;;;19.90;60.50;;;;;;4972107;28;20051;-82
2022/05/14 11:54:58;;;;;;;22.15;4.57;;;19.70;62.00;;;;;;4957256;29;20139;-81
2022/05/14 11:57:36;;;;;;;18.10;4.45;;;19.60;61.30;;;;;;4971562;28;20044;-82
2022/05/14 12:00:17;;;;;;;18.05;4.75;;;19.50;63.30;;;;;;4957970;29;20051;-82
2022/05/14 12:02:47;;;;;;;22.10;5.05;;;19.60;62.80;;;;;;4971708;28;20063;-81
2022/05/14 12:05:28;;;;;;;17.67;5.18;;;19.70;62.60;;;;;;4957417;29;20458;-81
2022/05/14 12:08:18;;;;;;;19.55;4.95;;;19.80;63.10;;;;;;4972402;28;20150;-82
2022/05/14 12:10:51;;;;;;;27.88;5.72;;;19.90;60.40;;;;;;4958163;28;20057;-82
2022/05/14 12:13:35;;;;;;;17.35;4.50;;;19.90;60.70;;;;;;4956570;29;20130;-83
2022/05/14 12:16:01;;;;;;;20.45;4.82;;;19.90;61.00;;;;;;4973067;28;20047;-83
2022/05/14 12:18:27;;;;;;;20.48;5.32;;;19.90;60.90;;;;;;4988848;28;20381;-84
2022/05/14 12:20:54;;;;;;;18.95;4.68;;;20.00;60.30;;;;;;4972667;28;20050;-84
2022/05/14 12:23:19;;;;;;;16.38;5.05;;;20.00;58.60;;;;;;4972323;28;20395;-85
2022/05/14 12:25:47;;;;;;;19.33;4.72;;;20.00;58.10;;;;;;4955857;29;20039;-86
2022/05/14 12:28:18;;;;;;;17.65;4.35;;;20.10;58.70;;;;;;4989436;28;20059;-86
2022/05/14 12:34:10;;;;;;;15.35;4.07;;;20.20;59.80;;;;;;5011854;28;20050;-85
2022/05/14 12:36:44;;;;;;;21.60;5.30;;;20.10;56.60;;;;;;4977689;28;20036;-84
2022/05/14 12:39:21;;;;;;;19.35;4.45;;;20.00;58.80;;;;;;4995631;28;20051;-85
2022/05/14 12:41:52;;;;;;;18.50;5.28;;;19.90;59.40;;;;;;5011552;28;20043;-84
2022/05/14 12:44:24;;;;;;;17.85;4.70;;;19.90;59.10;;;;;;4998596;28;20044;-86
2022/05/14 12:46:56;;;;;;;18.77;4.47;;;19.90;59.50;;;;;;4970948;29;20078;-86
2022/05/14 12:49:37;;;;;;;20.02;4.65;;;19.90;59.30;;;;;;4949211;29;20053;-84
2022/05/14 12:52:32;;;;;;;16.60;4.55;;;19.90;59.30;;;;;;4958625;29;20066;-86
2022/05/14 12:55:12;;;;;;;16.90;4.43;;;20.00;58.00;;;;;;4939014;29;20062;-87
2022/05/14 12:57:39;;;;;;;20.02;5.47;;;20.00;58.90;;;;;;4971545;28;20126;-85
2022/05/14 13:00:07;;;;;;;16.02;4.32;;;20.00;58.60;;;;;;4940987;29;20137;-88
2022/05/14 13:02:35;;;;;;;18.65;4.50;;;20.10;59.40;;;;;;4955618;29;20063;-89
2022/05/14 13:05:09;;;;;;;16.30;4.80;;;20.10;59.40;;;;;;4973072;28;20054;-89
2022/05/14 13:07:42;;;;;;;17.52;4.70;;;20.10;58.20;;;;;;4988706;28;20039;-89
2022/05/14 13:10:08;;;;;;;17.90;4.32;;;20.10;58.30;;;;;;4957174;29;20058;-86
2022/05/14 13:12:34;;;;;;;19.08;5.15;;;20.10;58.30;;;;;;4972950;28;20475;-87
2022/05/14 13:15:05;;;;;;;19.65;5.38;;;20.10;58.60;;;;;;4957009;29;20097;-87
2022/05/14 13:17:40;;;;;;;16.60;4.82;;;20.00;58.20;;;;;;4972908;28;20055;-87